sensor_id;sensor_type;location;lat;lon;timestamp;P1;durP1;ratioP1;P2;durP2;ratioP2
11287;SDS011;5700;50.996;7.044;2023-07-29T00:01:34;1.48;;;1.30;;
11287;SDS011;5700;50.996;7.044;2023-07-29T00:04:36;5.78;;;1.77;;
11287;SDS011;5700;50.996;7.044;2023-07-29T00:07:37;2.13;;;1.50;;
11287;SDS011;5700;50.996;7.044;2023-07-29T00:10:39;1.90;;;1.20;;
11287;SDS011;5700;50.996;7.044;2023-07-29T00:13:41;2.22;;;1.58;;
11287;SDS011;5700;50.996;7.044;2023-07-29T00:16:44;2.88;;;1.50;;
11287;SDS011;5700;50.996;7.044;2023-07-29T00:19:46;2.22;;;1.52;;
11287;SDS011;5700;50.996;7.044;2023-07-29T00:22:47;4.38;;;1.60;;
11287;SDS011;5700;50.996;7.044;2023-07-29T00:25:49;2.53;;;1.58;;
11287;SDS011;5700;50.996;7.044;2023-07-29T00:28:52;1.75;;;1.40;;
11287;SDS011;5700;50.996;7.044;2023-07-29T00:31:55;1.90;;;1.35;;
11287;SDS011;5700;50.996;7.044;2023-07-29T00:34:57;4.07;;;2.25;;
11287;SDS011;5700;50.996;7.044;2023-07-29T00:38:00;2.05;;;1.50;;
11287;SDS011;5700;50.996;7.044;2023-07-29T00:41:02;4.03;;;1.60;;
11287;SDS011;5700;50.996;7.044;2023-07-29T00:44:04;1.90;;;1.40;;
11287;SDS011;5700;50.996;7.044;2023-07-29T00:47:07;2.10;;;1.52;;
11287;SDS011;5700;50.996;7.044;2023-07-29T00:50:09;2.47;;;1.65;;
11287;SDS011;5700;50.996;7.044;2023-07-29T00:53:12;3.25;;;1.70;;
11287;SDS011;5700;50.996;7.044;2023-07-29T00:56:14;2.10;;;1.58;;
11287;SDS011;5700;50.996;7.044;2023-07-29T00:59:15;3.55;;;1.80;;
11287;SDS011;5700;50.996;7.044;2023-07-29T01:02:19;3.95;;;1.88;;
11287;SDS011;5700;50.996;7.044;2023-07-29T01:05:20;2.53;;;1.65;;
11287;SDS011;5700;50.996;7.044;2023-07-29T01:08:25;2.42;;;1.60;;
11287;SDS011;5700;50.996;7.044;2023-07-29T01:11:33;2.00;;;1.40;;
11287;SDS011;5700;50.996;7.044;2023-07-29T01:14:41;4.10;;;1.60;;
11287;SDS011;5700;50.996;7.044;2023-07-29T01:17:52;2.15;;;1.48;;
11287;SDS011;5700;50.996;7.044;2023-07-29T01:20:58;2.70;;;1.80;;
11287;SDS011;5700;50.996;7.044;2023-07-29T01:24:02;2.28;;;1.67;;
11287;SDS011;5700;50.996;7.044;2023-07-29T01:27:04;2.13;;;1.80;;
11287;SDS011;5700;50.996;7.044;2023-07-29T01:30:07;4.18;;;2.00;;
11287;SDS011;5700;50.996;7.044;2023-07-29T01:33:09;2.95;;;2.00;;
11287;SDS011;5700;50.996;7.044;2023-07-29T01:36:17;2.75;;;2.03;;
11287;SDS011;5700;50.996;7.044;2023-07-29T01:39:25;2.58;;;1.88;;
11287;SDS011;5700;50.996;7.044;2023-07-29T01:42:29;2.65;;;1.90;;
11287;SDS011;5700;50.996;7.044;2023-07-29T01:45:31;2.42;;;1.75;;
11287;SDS011;5700;50.996;7.044;2023-07-29T01:48:36;2.38;;;1.90;;
11287;SDS011;5700;50.996;7.044;2023-07-29T01:51:37;2.72;;;2.03;;
11287;SDS011;5700;50.996;7.044;2023-07-29T01:54:41;6.25;;;2.30;;
11287;SDS011;5700;50.996;7.044;2023-07-29T01:57:42;4.28;;;1.90;;
11287;SDS011;5700;50.996;7.044;2023-07-29T02:00:44;4.85;;;2.58;;
11287;SDS011;5700;50.996;7.044;2023-07-29T02:03:46;2.90;;;1.70;;
11287;SDS011;5700;50.996;7.044;2023-07-29T02:06:53;5.80;;;1.77;;
11287;SDS011;5700;50.996;7.044;2023-07-29T02:09:56;2.90;;;2.00;;
11287;SDS011;5700;50.996;7.044;2023-07-29T02:12:58;5.30;;;2.00;;
11287;SDS011;5700;50.996;7.044;2023-07-29T02:16:00;3.58;;;2.10;;
11287;SDS011;5700;50.996;7.044;2023-07-29T02:19:01;3.25;;;2.00;;
11287;SDS011;5700;50.996;7.044;2023-07-29T02:22:03;3.30;;;2.00;;
11287;SDS011;5700;50.996;7.044;2023-07-29T02:25:07;2.88;;;2.15;;
11287;SDS011;5700;50.996;7.044;2023-07-29T02:28:10;3.13;;;1.92;;
11287;SDS011;5700;50.996;7.044;2023-07-29T02:31:14;3.50;;;2.40;;
11287;SDS011;5700;50.996;7.044;2023-07-29T02:34:16;4.32;;;2.33;;
11287;SDS011;5700;50.996;7.044;2023-07-29T02:37:18;3.35;;;2.00;;
11287;SDS011;5700;50.996;7.044;2023-07-29T02:40:21;4.88;;;2.22;;
11287;SDS011;5700;50.996;7.044;2023-07-29T02:43:25;4.93;;;2.50;;
11287;SDS011;5700;50.996;7.044;2023-07-29T02:46:26;3.83;;;2.33;;
11287;SDS011;5700;50.996;7.044;2023-07-29T02:49:28;4.30;;;2.40;;
11287;SDS011;5700;50.996;7.044;2023-07-29T02:52:29;4.10;;;2.10;;
11287;SDS011;5700;50.996;7.044;2023-07-29T02:55:33;4.95;;;2.50;;
11287;SDS011;5700;50.996;7.044;2023-07-29T02:58:35;3.45;;;2.33;;
11287;SDS011;5700;50.996;7.044;2023-07-29T03:01:36;4.40;;;2.28;;
11287;SDS011;5700;50.996;7.044;2023-07-29T03:04:38;2.92;;;2.08;;
11287;SDS011;5700;50.996;7.044;2023-07-29T03:07:40;4.97;;;2.30;;
11287;SDS011;5700;50.996;7.044;2023-07-29T03:10:43;5.30;;;2.45;;
11287;SDS011;5700;50.996;7.044;2023-07-29T03:13:45;3.78;;;1.88;;
11287;SDS011;5700;50.996;7.044;2023-07-29T03:16:46;2.20;;;1.70;;
11287;SDS011;5700;50.996;7.044;2023-07-29T03:19:48;7.13;;;2.10;;
11287;SDS011;5700;50.996;7.044;2023-07-29T03:22:50;3.90;;;2.10;;
11287;SDS011;5700;50.996;7.044;2023-07-29T03:25:53;2.80;;;2.15;;
11287;SDS011;5700;50.996;7.044;2023-07-29T03:28:56;4.82;;;2.42;;
11287;SDS011;5700;50.996;7.044;2023-07-29T03:31:58;3.60;;;1.92;;
11287;SDS011;5700;50.996;7.044;2023-07-29T03:35:00;2.20;;;1.83;;
11287;SDS011;5700;50.996;7.044;2023-07-29T03:38:01;3.15;;;1.80;;
11287;SDS011;5700;50.996;7.044;2023-07-29T03:41:04;2.58;;;1.85;;
11287;SDS011;5700;50.996;7.044;2023-07-29T03:44:06;3.55;;;2.42;;
11287;SDS011;5700;50.996;7.044;2023-07-29T03:47:08;3.20;;;1.92;;
11287;SDS011;5700;50.996;7.044;2023-07-29T03:50:10;3.70;;;1.95;;
11287;SDS011;5700;50.996;7.044;2023-07-29T03:53:11;4.13;;;1.80;;
11287;SDS011;5700;50.996;7.044;2023-07-29T03:56:15;3.42;;;2.35;;
11287;SDS011;5700;50.996;7.044;2023-07-29T03:59:17;4.25;;;1.85;;
11287;SDS011;5700;50.996;7.044;2023-07-29T04:02:18;4.60;;;2.70;;
11287;SDS011;5700;50.996;7.044;2023-07-29T04:05:20;4.03;;;1.75;;
11287;SDS011;5700;50.996;7.044;2023-07-29T04:08:21;6.22;;;2.13;;
11287;SDS011;5700;50.996;7.044;2023-07-29T04:11:24;5.60;;;1.92;;
11287;SDS011;5700;50.996;7.044;2023-07-29T04:14:26;4.22;;;1.90;;
11287;SDS011;5700;50.996;7.044;2023-07-29T04:17:28;3.33;;;2.00;;
11287;SDS011;5700;50.996;7.044;2023-07-29T04:20:29;3.30;;;2.05;;
11287;SDS011;5700;50.996;7.044;2023-07-29T04:23:31;3.95;;;1.70;;
11287;SDS011;5700;50.996;7.044;2023-07-29T04:26:34;3.08;;;1.83;;
11287;SDS011;5700;50.996;7.044;2023-07-29T04:29:36;2.25;;;1.63;;
11287;SDS011;5700;50.996;7.044;2023-07-29T04:32:38;4.20;;;2.05;;
11287;SDS011;5700;50.996;7.044;2023-07-29T04:35:40;4.68;;;1.80;;
11287;SDS011;5700;50.996;7.044;2023-07-29T04:38:41;4.35;;;2.10;;
11287;SDS011;5700;50.996;7.044;2023-07-29T04:41:44;6.68;;;2.05;;
11287;SDS011;5700;50.996;7.044;2023-07-29T04:44:46;2.83;;;1.77;;
11287;SDS011;5700;50.996;7.044;2023-07-29T04:47:47;2.80;;;1.83;;
11287;SDS011;5700;50.996;7.044;2023-07-29T04:50:49;5.57;;;1.83;;
11287;SDS011;5700;50.996;7.044;2023-07-29T04:53:51;3.38;;;1.80;;
11287;SDS011;5700;50.996;7.044;2023-07-29T04:56:54;3.38;;;1.58;;
11287;SDS011;5700;50.996;7.044;2023-07-29T04:59:55;4.65;;;2.15;;
11287;SDS011;5700;50.996;7.044;2023-07-29T05:02:57;2.97;;;1.90;;
11287;SDS011;5700;50.996;7.044;2023-07-29T05:05:59;4.03;;;2.25;;
11287;SDS011;5700;50.996;7.044;2023-07-29T05:09:11;3.67;;;2.13;;
11287;SDS011;5700;50.996;7.044;2023-07-29T05:12:16;3.33;;;2.13;;
11287;SDS011;5700;50.996;7.044;2023-07-29T05:15:17;3.30;;;1.92;;
11287;SDS011;5700;50.996;7.044;2023-07-29T05:18:20;3.10;;;2.15;;
11287;SDS011;5700;50.996;7.044;2023-07-29T05:21:21;2.95;;;1.83;;
11287;SDS011;5700;50.996;7.044;2023-07-29T05:24:23;10.32;;;2.80;;
11287;SDS011;5700;50.996;7.044;2023-07-29T05:27:26;2.30;;;1.70;;
11287;SDS011;5700;50.996;7.044;2023-07-29T05:30:28;3.05;;;2.03;;
11287;SDS011;5700;50.996;7.044;2023-07-29T05:33:31;2.92;;;2.20;;
11287;SDS011;5700;50.996;7.044;2023-07-29T05:36:32;2.50;;;1.58;;
11287;SDS011;5700;50.996;7.044;2023-07-29T05:39:34;2.47;;;1.63;;
11287;SDS011;5700;50.996;7.044;2023-07-29T05:42:37;3.90;;;2.10;;
11287;SDS011;5700;50.996;7.044;2023-07-29T05:45:40;3.15;;;1.90;;
11287;SDS011;5700;50.996;7.044;2023-07-29T05:48:41;2.53;;;2.00;;
11287;SDS011;5700;50.996;7.044;2023-07-29T05:51:43;3.47;;;2.05;;
11287;SDS011;5700;50.996;7.044;2023-07-29T05:54:45;4.13;;;2.50;;
11287;SDS011;5700;50.996;7.044;2023-07-29T05:57:47;3.85;;;2.10;;
11287;SDS011;5700;50.996;7.044;2023-07-29T06:00:50;3.33;;;2.20;;
11287;SDS011;5700;50.996;7.044;2023-07-29T06:03:51;3.85;;;2.40;;
11287;SDS011;5700;50.996;7.044;2023-07-29T06:06:53;4.47;;;2.72;;
11287;SDS011;5700;50.996;7.044;2023-07-29T06:09:55;4.43;;;2.83;;
11287;SDS011;5700;50.996;7.044;2023-07-29T06:12:59;4.10;;;2.58;;
11287;SDS011;5700;50.996;7.044;2023-07-29T06:16:00;4.22;;;3.00;;
11287;SDS011;5700;50.996;7.044;2023-07-29T06:19:02;5.90;;;3.17;;
11287;SDS011;5700;50.996;7.044;2023-07-29T06:22:04;4.60;;;2.88;;
11287;SDS011;5700;50.996;7.044;2023-07-29T06:25:06;5.75;;;3.30;;
11287;SDS011;5700;50.996;7.044;2023-07-29T06:28:10;7.70;;;3.00;;
11287;SDS011;5700;50.996;7.044;2023-07-29T06:31:11;4.30;;;2.53;;
11287;SDS011;5700;50.996;7.044;2023-07-29T06:34:13;4.47;;;2.30;;
11287;SDS011;5700;50.996;7.044;2023-07-29T06:37:15;4.03;;;2.70;;
11287;SDS011;5700;50.996;7.044;2023-07-29T06:40:16;3.30;;;2.15;;
11287;SDS011;5700;50.996;7.044;2023-07-29T06:43:20;4.95;;;1.95;;
11287;SDS011;5700;50.996;7.044;2023-07-29T06:46:21;3.65;;;2.33;;
11287;SDS011;5700;50.996;7.044;2023-07-29T06:49:23;4.03;;;2.15;;
11287;SDS011;5700;50.996;7.044;2023-07-29T06:52:25;3.97;;;2.20;;
11287;SDS011;5700;50.996;7.044;2023-07-29T06:55:26;2.85;;;1.98;;
11287;SDS011;5700;50.996;7.044;2023-07-29T06:58:29;3.88;;;1.92;;
11287;SDS011;5700;50.996;7.044;2023-07-29T07:01:30;2.22;;;1.60;;
11287;SDS011;5700;50.996;7.044;2023-07-29T07:04:32;2.35;;;1.80;;
11287;SDS011;5700;50.996;7.044;2023-07-29T07:07:33;2.65;;;1.52;;
11287;SDS011;5700;50.996;7.044;2023-07-29T07:10:35;3.22;;;1.70;;
11287;SDS011;5700;50.996;7.044;2023-07-29T07:13:38;3.20;;;1.92;;
11287;SDS011;5700;50.996;7.044;2023-07-29T07:16:39;2.92;;;1.70;;
11287;SDS011;5700;50.996;7.044;2023-07-29T07:19:41;2.80;;;1.50;;
11287;SDS011;5700;50.996;7.044;2023-07-29T07:22:43;2.25;;;1.50;;
11287;SDS011;5700;50.996;7.044;2023-07-29T07:25:44;2.28;;;1.35;;
11287;SDS011;5700;50.996;7.044;2023-07-29T07:28:48;2.97;;;1.40;;
11287;SDS011;5700;50.996;7.044;2023-07-29T07:31:50;2.03;;;1.27;;
11287;SDS011;5700;50.996;7.044;2023-07-29T07:34:53;3.53;;;1.50;;
11287;SDS011;5700;50.996;7.044;2023-07-29T07:37:54;3.67;;;1.70;;
11287;SDS011;5700;50.996;7.044;2023-07-29T07:40:56;5.65;;;2.20;;
11287;SDS011;5700;50.996;7.044;2023-07-29T07:43:59;5.90;;;2.17;;
11287;SDS011;5700;50.996;7.044;2023-07-29T07:47:01;2.55;;;1.38;;
11287;SDS011;5700;50.996;7.044;2023-07-29T07:50:03;3.15;;;1.60;;
11287;SDS011;5700;50.996;7.044;2023-07-29T07:53:05;6.47;;;1.88;;
11287;SDS011;5700;50.996;7.044;2023-07-29T07:56:07;2.75;;;1.58;;
11287;SDS011;5700;50.996;7.044;2023-07-29T07:59:10;2.63;;;1.60;;
11287;SDS011;5700;50.996;7.044;2023-07-29T08:02:12;3.15;;;1.40;;
11287;SDS011;5700;50.996;7.044;2023-07-29T08:05:14;2.75;;;1.65;;
11287;SDS011;5700;50.996;7.044;2023-07-29T08:08:15;3.28;;;1.50;;
11287;SDS011;5700;50.996;7.044;2023-07-29T08:11:17;4.60;;;1.60;;
11287;SDS011;5700;50.996;7.044;2023-07-29T08:14:20;2.30;;;1.25;;
11287;SDS011;5700;50.996;7.044;2023-07-29T08:17:21;2.33;;;1.20;;
11287;SDS011;5700;50.996;7.044;2023-07-29T08:20:23;2.22;;;1.23;;
11287;SDS011;5700;50.996;7.044;2023-07-29T08:23:25;1.48;;;1.00;;
11287;SDS011;5700;50.996;7.044;2023-07-29T08:26:27;2.35;;;1.10;;
11287;SDS011;5700;50.996;7.044;2023-07-29T08:29:31;3.08;;;1.58;;
11287;SDS011;5700;50.996;7.044;2023-07-29T08:32:33;2.60;;;1.30;;
11287;SDS011;5700;50.996;7.044;2023-07-29T08:35:35;5.35;;;2.72;;
11287;SDS011;5700;50.996;7.044;2023-07-29T08:38:36;5.55;;;2.80;;
11287;SDS011;5700;50.996;7.044;2023-07-29T08:41:40;3.63;;;2.70;;
11287;SDS011;5700;50.996;7.044;2023-07-29T08:44:47;3.45;;;2.72;;
11287;SDS011;5700;50.996;7.044;2023-07-29T08:47:50;4.15;;;2.08;;
11287;SDS011;5700;50.996;7.044;2023-07-29T08:50:54;4.00;;;1.83;;
11287;SDS011;5700;50.996;7.044;2023-07-29T08:53:56;4.38;;;1.40;;
11287;SDS011;5700;50.996;7.044;2023-07-29T08:56:59;2.20;;;1.17;;
11287;SDS011;5700;50.996;7.044;2023-07-29T09:00:02;2.78;;;1.25;;
11287;SDS011;5700;50.996;7.044;2023-07-29T09:03:04;1.63;;;1.13;;
11287;SDS011;5700;50.996;7.044;2023-07-29T09:06:07;1.85;;;1.30;;
11287;SDS011;5700;50.996;7.044;2023-07-29T09:09:09;1.80;;;1.30;;
11287;SDS011;5700;50.996;7.044;2023-07-29T09:12:10;1.20;;;0.93;;
11287;SDS011;5700;50.996;7.044;2023-07-29T09:15:14;3.50;;;1.00;;
11287;SDS011;5700;50.996;7.044;2023-07-29T09:18:27;1.35;;;0.80;;
11287;SDS011;5700;50.996;7.044;2023-07-29T09:21:29;2.28;;;0.88;;
11287;SDS011;5700;50.996;7.044;2023-07-29T09:24:31;2.08;;;0.88;;
11287;SDS011;5700;50.996;7.044;2023-07-29T09:27:34;2.28;;;1.17;;
11287;SDS011;5700;50.996;7.044;2023-07-29T09:30:41;1.20;;;1.10;;
11287;SDS011;5700;50.996;7.044;2023-07-29T09:33:44;2.90;;;1.25;;
11287;SDS011;5700;50.996;7.044;2023-07-29T09:36:46;2.92;;;0.93;;
11287;SDS011;5700;50.996;7.044;2023-07-29T09:39:47;0.93;;;0.80;;
11287;SDS011;5700;50.996;7.044;2023-07-29T09:42:50;1.77;;;1.10;;
11287;SDS011;5700;50.996;7.044;2023-07-29T09:45:53;1.80;;;0.93;;
11287;SDS011;5700;50.996;7.044;2023-07-29T09:48:55;2.25;;;1.00;;
11287;SDS011;5700;50.996;7.044;2023-07-29T09:51:58;0.80;;;0.70;;
11287;SDS011;5700;50.996;7.044;2023-07-29T09:55:02;0.90;;;0.60;;
11287;SDS011;5700;50.996;7.044;2023-07-29T09:58:04;1.58;;;0.80;;
11287;SDS011;5700;50.996;7.044;2023-07-29T10:01:09;0.93;;;0.60;;
11287;SDS011;5700;50.996;7.044;2023-07-29T10:04:11;1.52;;;0.70;;
11287;SDS011;5700;50.996;7.044;2023-07-29T10:07:14;3.85;;;0.75;;
11287;SDS011;5700;50.996;7.044;2023-07-29T10:10:15;1.65;;;0.73;;
11287;SDS011;5700;50.996;7.044;2023-07-29T10:13:18;1.15;;;0.70;;
11287;SDS011;5700;50.996;7.044;2023-07-29T10:16:21;2.25;;;1.25;;
11287;SDS011;5700;50.996;7.044;2023-07-29T10:19:24;3.05;;;1.27;;
11287;SDS011;5700;50.996;7.044;2023-07-29T10:22:27;2.15;;;1.00;;
11287;SDS011;5700;50.996;7.044;2023-07-29T10:25:32;2.08;;;0.93;;
11287;SDS011;5700;50.996;7.044;2023-07-29T10:28:39;1.88;;;1.30;;
11287;SDS011;5700;50.996;7.044;2023-07-29T10:31:43;2.42;;;1.00;;
11287;SDS011;5700;50.996;7.044;2023-07-29T10:34:45;2.28;;;1.00;;
11287;SDS011;5700;50.996;7.044;2023-07-29T10:37:47;2.42;;;1.10;;
11287;SDS011;5700;50.996;7.044;2023-07-29T10:40:52;2.00;;;1.08;;
11287;SDS011;5700;50.996;7.044;2023-07-29T10:43:56;2.28;;;1.10;;
11287;SDS011;5700;50.996;7.044;2023-07-29T10:46:59;2.00;;;1.02;;
11287;SDS011;5700;50.996;7.044;2023-07-29T10:50:00;1.33;;;0.90;;
11287;SDS011;5700;50.996;7.044;2023-07-29T10:53:02;1.88;;;1.33;;
11287;SDS011;5700;50.996;7.044;2023-07-29T10:56:04;2.70;;;1.25;;
11287;SDS011;5700;50.996;7.044;2023-07-29T11:02:29;2.05;;;1.10;;
11287;SDS011;5700;50.996;7.044;2023-07-29T11:08:49;4.20;;;1.02;;
11287;SDS011;5700;50.996;7.044;2023-07-29T11:11:52;2.05;;;1.30;;
11287;SDS011;5700;50.996;7.044;2023-07-29T11:14:54;2.40;;;1.27;;
11287;SDS011;5700;50.996;7.044;2023-07-29T11:17:57;2.58;;;1.15;;
11287;SDS011;5700;50.996;7.044;2023-07-29T11:20:59;2.45;;;1.20;;
11287;SDS011;5700;50.996;7.044;2023-07-29T11:24:01;2.00;;;1.10;;
11287;SDS011;5700;50.996;7.044;2023-07-29T11:27:03;1.45;;;1.10;;
11287;SDS011;5700;50.996;7.044;2023-07-29T11:30:06;2.55;;;1.02;;
11287;SDS011;5700;50.996;7.044;2023-07-29T11:33:10;2.80;;;1.15;;
11287;SDS011;5700;50.996;7.044;2023-07-29T11:36:17;4.45;;;1.02;;
11287;SDS011;5700;50.996;7.044;2023-07-29T11:39:19;1.90;;;1.00;;
11287;SDS011;5700;50.996;7.044;2023-07-29T11:42:21;1.75;;;0.88;;
11287;SDS011;5700;50.996;7.044;2023-07-29T11:45:23;2.00;;;1.30;;
11287;SDS011;5700;50.996;7.044;2023-07-29T11:48:28;1.92;;;1.20;;
11287;SDS011;5700;50.996;7.044;2023-07-29T11:51:30;3.30;;;1.08;;
11287;SDS011;5700;50.996;7.044;2023-07-29T11:54:31;1.83;;;0.90;;
11287;SDS011;5700;50.996;7.044;2023-07-29T11:57:33;1.98;;;0.88;;
11287;SDS011;5700;50.996;7.044;2023-07-29T12:00:37;1.30;;;0.93;;
11287;SDS011;5700;50.996;7.044;2023-07-29T12:03:41;2.05;;;0.95;;
11287;SDS011;5700;50.996;7.044;2023-07-29T12:06:43;1.85;;;0.80;;
11287;SDS011;5700;50.996;7.044;2023-07-29T12:09:46;1.85;;;1.08;;
11287;SDS011;5700;50.996;7.044;2023-07-29T12:12:48;1.65;;;0.95;;
11287;SDS011;5700;50.996;7.044;2023-07-29T12:15:51;1.88;;;0.88;;
11287;SDS011;5700;50.996;7.044;2023-07-29T12:18:54;0.80;;;0.70;;
11287;SDS011;5700;50.996;7.044;2023-07-29T12:21:55;1.50;;;0.98;;
11287;SDS011;5700;50.996;7.044;2023-07-29T12:24:57;1.45;;;0.98;;
11287;SDS011;5700;50.996;7.044;2023-07-29T12:28:02;3.00;;;0.90;;
11287;SDS011;5700;50.996;7.044;2023-07-29T12:31:07;3.95;;;0.95;;
11287;SDS011;5700;50.996;7.044;2023-07-29T12:34:10;1.70;;;1.00;;
11287;SDS011;5700;50.996;7.044;2023-07-29T12:37:12;1.90;;;1.00;;
11287;SDS011;5700;50.996;7.044;2023-07-29T12:40:21;1.52;;;1.15;;
11287;SDS011;5700;50.996;7.044;2023-07-29T12:43:24;3.67;;;0.93;;
11287;SDS011;5700;50.996;7.044;2023-07-29T12:46:28;2.88;;;1.00;;
11287;SDS011;5700;50.996;7.044;2023-07-29T12:49:32;2.17;;;1.10;;
11287;SDS011;5700;50.996;7.044;2023-07-29T12:52:33;1.67;;;0.70;;
11287;SDS011;5700;50.996;7.044;2023-07-29T12:55:35;1.70;;;1.10;;
11287;SDS011;5700;50.996;7.044;2023-07-29T12:58:37;1.83;;;1.10;;
11287;SDS011;5700;50.996;7.044;2023-07-29T13:01:38;1.17;;;0.70;;
11287;SDS011;5700;50.996;7.044;2023-07-29T13:04:41;2.17;;;1.00;;
11287;SDS011;5700;50.996;7.044;2023-07-29T13:07:42;1.52;;;0.93;;
11287;SDS011;5700;50.996;7.044;2023-07-29T13:10:44;1.73;;;0.82;;
11287;SDS011;5700;50.996;7.044;2023-07-29T13:13:46;1.50;;;1.05;;
11287;SDS011;5700;50.996;7.044;2023-07-29T13:16:47;1.35;;;0.90;;
11287;SDS011;5700;50.996;7.044;2023-07-29T13:19:51;1.08;;;0.70;;
11287;SDS011;5700;50.996;7.044;2023-07-29T13:22:52;2.30;;;1.02;;
11287;SDS011;5700;50.996;7.044;2023-07-29T13:25:54;1.77;;;1.00;;
11287;SDS011;5700;50.996;7.044;2023-07-29T13:28:56;2.30;;;0.90;;
11287;SDS011;5700;50.996;7.044;2023-07-29T13:31:57;2.25;;;1.27;;
11287;SDS011;5700;50.996;7.044;2023-07-29T13:35:00;2.28;;;0.85;;
11287;SDS011;5700;50.996;7.044;2023-07-29T13:38:02;1.88;;;0.88;;
11287;SDS011;5700;50.996;7.044;2023-07-29T13:41:04;1.63;;;0.90;;
11287;SDS011;5700;50.996;7.044;2023-07-29T13:44:06;1.52;;;0.95;;
11287;SDS011;5700;50.996;7.044;2023-07-29T13:47:07;1.70;;;1.00;;
11287;SDS011;5700;50.996;7.044;2023-07-29T13:50:11;2.22;;;0.90;;
11287;SDS011;5700;50.996;7.044;2023-07-29T13:53:12;1.95;;;1.05;;
11287;SDS011;5700;50.996;7.044;2023-07-29T13:56:14;1.90;;;0.95;;
11287;SDS011;5700;50.996;7.044;2023-07-29T13:59:15;1.85;;;1.13;;
11287;SDS011;5700;50.996;7.044;2023-07-29T14:02:17;2.22;;;1.20;;
11287;SDS011;5700;50.996;7.044;2023-07-29T14:05:20;2.67;;;0.90;;
11287;SDS011;5700;50.996;7.044;2023-07-29T14:08:22;2.45;;;1.30;;
11287;SDS011;5700;50.996;7.044;2023-07-29T14:11:24;2.17;;;1.20;;
11287;SDS011;5700;50.996;7.044;2023-07-29T14:14:26;2.13;;;1.27;;
11287;SDS011;5700;50.996;7.044;2023-07-29T14:17:27;3.35;;;1.58;;
11287;SDS011;5700;50.996;7.044;2023-07-29T14:20:31;2.67;;;1.33;;
11287;SDS011;5700;50.996;7.044;2023-07-29T14:23:33;4.03;;;1.52;;
11287;SDS011;5700;50.996;7.044;2023-07-29T14:26:34;2.85;;;1.70;;
11287;SDS011;5700;50.996;7.044;2023-07-29T14:29:36;2.38;;;1.40;;
11287;SDS011;5700;50.996;7.044;2023-07-29T14:32:37;3.05;;;1.60;;
11287;SDS011;5700;50.996;7.044;2023-07-29T14:35:40;3.80;;;1.70;;
11287;SDS011;5700;50.996;7.044;2023-07-29T14:38:42;3.47;;;1.63;;
11287;SDS011;5700;50.996;7.044;2023-07-29T14:41:44;3.10;;;1.90;;
11287;SDS011;5700;50.996;7.044;2023-07-29T14:44:45;3.65;;;1.90;;
11287;SDS011;5700;50.996;7.044;2023-07-29T14:47:47;3.67;;;1.42;;
11287;SDS011;5700;50.996;7.044;2023-07-29T14:50:50;5.05;;;1.35;;
11287;SDS011;5700;50.996;7.044;2023-07-29T14:53:51;3.65;;;1.27;;
11287;SDS011;5700;50.996;7.044;2023-07-29T14:56:53;2.63;;;1.25;;
11287;SDS011;5700;50.996;7.044;2023-07-29T14:59:55;2.40;;;1.50;;
11287;SDS011;5700;50.996;7.044;2023-07-29T15:02:57;2.05;;;1.30;;
11287;SDS011;5700;50.996;7.044;2023-07-29T15:06:00;2.92;;;1.50;;
11287;SDS011;5700;50.996;7.044;2023-07-29T15:09:03;2.75;;;1.48;;
11287;SDS011;5700;50.996;7.044;2023-07-29T15:12:05;3.00;;;1.48;;
11287;SDS011;5700;50.996;7.044;2023-07-29T15:15:07;1.85;;;1.50;;
11287;SDS011;5700;50.996;7.044;2023-07-29T15:18:09;2.15;;;1.17;;
11287;SDS011;5700;50.996;7.044;2023-07-29T15:21:12;2.70;;;1.30;;
11287;SDS011;5700;50.996;7.044;2023-07-29T15:24:14;2.22;;;1.60;;
11287;SDS011;5700;50.996;7.044;2023-07-29T15:27:15;2.03;;;1.42;;
11287;SDS011;5700;50.996;7.044;2023-07-29T15:30:17;2.00;;;1.27;;
11287;SDS011;5700;50.996;7.044;2023-07-29T15:33:18;2.28;;;1.30;;
11287;SDS011;5700;50.996;7.044;2023-07-29T15:36:22;1.80;;;1.30;;
11287;SDS011;5700;50.996;7.044;2023-07-29T15:39:23;3.40;;;1.35;;
11287;SDS011;5700;50.996;7.044;2023-07-29T15:42:25;2.13;;;1.50;;
11287;SDS011;5700;50.996;7.044;2023-07-29T15:45:27;2.60;;;1.48;;
11287;SDS011;5700;50.996;7.044;2023-07-29T15:48:28;2.28;;;1.40;;
11287;SDS011;5700;50.996;7.044;2023-07-29T15:51:32;2.35;;;1.50;;
11287;SDS011;5700;50.996;7.044;2023-07-29T15:54:33;3.13;;;1.40;;
11287;SDS011;5700;50.996;7.044;2023-07-29T15:57:35;2.20;;;1.20;;
11287;SDS011;5700;50.996;7.044;2023-07-29T16:00:37;2.00;;;1.20;;
11287;SDS011;5700;50.996;7.044;2023-07-29T16:03:39;2.17;;;1.20;;
11287;SDS011;5700;50.996;7.044;2023-07-29T16:06:43;1.80;;;1.13;;
11287;SDS011;5700;50.996;7.044;2023-07-29T16:09:44;2.35;;;1.23;;
11287;SDS011;5700;50.996;7.044;2023-07-29T16:12:46;2.92;;;1.42;;
11287;SDS011;5700;50.996;7.044;2023-07-29T16:15:48;4.20;;;1.80;;
11287;SDS011;5700;50.996;7.044;2023-07-29T16:18:50;3.10;;;1.70;;
11287;SDS011;5700;50.996;7.044;2023-07-29T16:21:53;2.88;;;1.50;;
11287;SDS011;5700;50.996;7.044;2023-07-29T16:24:55;2.20;;;1.50;;
11287;SDS011;5700;50.996;7.044;2023-07-29T16:27:57;2.55;;;1.35;;
11287;SDS011;5700;50.996;7.044;2023-07-29T16:30:58;1.92;;;1.38;;
11287;SDS011;5700;50.996;7.044;2023-07-29T16:34:00;2.28;;;1.50;;
11287;SDS011;5700;50.996;7.044;2023-07-29T16:37:04;2.97;;;1.60;;
11287;SDS011;5700;50.996;7.044;2023-07-29T16:40:06;3.42;;;1.75;;
11287;SDS011;5700;50.996;7.044;2023-07-29T16:43:09;3.35;;;1.65;;
11287;SDS011;5700;50.996;7.044;2023-07-29T16:46:11;4.07;;;2.10;;
11287;SDS011;5700;50.996;7.044;2023-07-29T16:49:12;3.83;;;2.22;;
11287;SDS011;5700;50.996;7.044;2023-07-29T16:52:15;5.22;;;2.15;;
11287;SDS011;5700;50.996;7.044;2023-07-29T16:55:17;3.83;;;1.75;;
11287;SDS011;5700;50.996;7.044;2023-07-29T16:58:18;3.15;;;1.80;;
11287;SDS011;5700;50.996;7.044;2023-07-29T17:01:20;3.60;;;2.00;;
11287;SDS011;5700;50.996;7.044;2023-07-29T17:04:22;4.45;;;1.77;;
11287;SDS011;5700;50.996;7.044;2023-07-29T17:07:25;5.03;;;1.90;;
11287;SDS011;5700;50.996;7.044;2023-07-29T17:10:26;2.55;;;1.70;;
11287;SDS011;5700;50.996;7.044;2023-07-29T17:13:28;2.58;;;1.80;;
11287;SDS011;5700;50.996;7.044;2023-07-29T17:16:30;2.97;;;2.08;;
11287;SDS011;5700;50.996;7.044;2023-07-29T17:19:31;3.45;;;2.00;;
11287;SDS011;5700;50.996;7.044;2023-07-29T17:22:35;4.57;;;2.22;;
11287;SDS011;5700;50.996;7.044;2023-07-29T17:25:37;3.00;;;1.88;;
11287;SDS011;5700;50.996;7.044;2023-07-29T17:28:39;2.67;;;1.65;;
11287;SDS011;5700;50.996;7.044;2023-07-29T17:31:40;2.78;;;1.60;;
11287;SDS011;5700;50.996;7.044;2023-07-29T17:34:43;5.03;;;2.20;;
11287;SDS011;5700;50.996;7.044;2023-07-29T17:37:46;3.90;;;1.90;;
11287;SDS011;5700;50.996;7.044;2023-07-29T17:40:48;2.95;;;1.83;;
11287;SDS011;5700;50.996;7.044;2023-07-29T17:43:50;3.42;;;2.10;;
11287;SDS011;5700;50.996;7.044;2023-07-29T17:46:52;4.95;;;2.17;;
11287;SDS011;5700;50.996;7.044;2023-07-29T17:49:55;2.92;;;2.00;;
11287;SDS011;5700;50.996;7.044;2023-07-29T17:52:58;3.53;;;2.05;;
11287;SDS011;5700;50.996;7.044;2023-07-29T17:56:00;2.97;;;2.00;;
11287;SDS011;5700;50.996;7.044;2023-07-29T17:59:02;3.47;;;2.00;;
11287;SDS011;5700;50.996;7.044;2023-07-29T18:02:04;2.92;;;1.88;;
11287;SDS011;5700;50.996;7.044;2023-07-29T18:05:06;4.13;;;2.25;;
11287;SDS011;5700;50.996;7.044;2023-07-29T18:08:09;5.28;;;2.30;;
11287;SDS011;5700;50.996;7.044;2023-07-29T18:11:11;4.18;;;2.35;;
11287;SDS011;5700;50.996;7.044;2023-07-29T18:14:14;3.72;;;2.17;;
11287;SDS011;5700;50.996;7.044;2023-07-29T18:17:16;3.55;;;2.30;;
11287;SDS011;5700;50.996;7.044;2023-07-29T18:20:17;4.22;;;2.42;;
11287;SDS011;5700;50.996;7.044;2023-07-29T18:23:21;4.88;;;2.40;;
11287;SDS011;5700;50.996;7.044;2023-07-29T18:26:24;4.53;;;2.60;;
11287;SDS011;5700;50.996;7.044;2023-07-29T18:29:26;5.15;;;3.03;;
11287;SDS011;5700;50.996;7.044;2023-07-29T18:32:27;6.00;;;2.58;;
11287;SDS011;5700;50.996;7.044;2023-07-29T18:35:29;6.00;;;3.00;;
11287;SDS011;5700;50.996;7.044;2023-07-29T18:38:33;5.00;;;2.78;;
11287;SDS011;5700;50.996;7.044;2023-07-29T18:41:34;4.35;;;2.58;;